createdAt,value
2018-10-11T00:01:56.871Z,96.80
2018-10-11T00:04:27.230Z,96.90
2018-10-11T00:06:57.656Z,97.00
2018-10-11T00:09:28.021Z,96.80
2018-10-11T00:11:58.451Z,96.60
2018-10-11T00:14:28.832Z,96.70
2018-10-11T00:16:59.308Z,96.70
2018-10-11T00:19:29.709Z,96.70
2018-10-11T00:22:00.149Z,96.70
2018-10-11T00:24:30.526Z,96.60
2018-10-11T00:27:00.918Z,96.40
2018-10-11T00:29:31.368Z,96.50
2018-10-11T00:32:01.793Z,96.40
2018-10-11T00:34:32.226Z,96.60
2018-10-11T00:37:02.665Z,96.60
2018-10-11T00:39:33.065Z,96.40
2018-10-11T00:42:03.480Z,96.40
2018-10-11T00:44:33.850Z,96.40
2018-10-11T00:47:04.260Z,96.50
2018-10-11T00:49:34.680Z,96.40
2018-10-11T00:52:05.037Z,96.40
2018-10-11T00:54:35.493Z,96.50
2018-10-11T00:57:06.312Z,96.30
2018-10-11T00:59:36.826Z,96.10
2018-10-11T01:02:07.247Z,96.10
2018-10-11T01:04:37.669Z,96.90
2018-10-11T01:07:08.112Z,97.00
2018-10-11T01:09:38.552Z,96.70
2018-10-11T01:12:09.238Z,96.70
2018-10-11T01:14:39.690Z,96.80
2018-10-11T01:17:10.084Z,97.20
2018-10-11T01:19:40.606Z,97.10
2018-10-11T01:22:11.012Z,97.00
2018-10-11T01:24:41.945Z,97.00
2018-10-11T01:27:12.311Z,97.20
2018-10-11T01:29:42.753Z,97.10
2018-10-11T01:32:13.128Z,97.10
2018-10-11T01:34:43.538Z,97.30
2018-10-11T01:37:13.949Z,97.20
2018-10-11T01:39:44.419Z,97.20
2018-10-11T01:42:14.829Z,97.20
2018-10-11T01:44:45.322Z,97.20
2018-10-11T01:47:15.780Z,97.30
2018-10-11T01:49:46.305Z,97.40
2018-10-11T01:52:16.719Z,97.20
2018-10-11T01:54:47.129Z,97.30
2018-10-11T01:57:17.519Z,97.20
2018-10-11T01:59:47.892Z,97.30
2018-10-11T02:02:18.276Z,97.30
2018-10-11T02:04:48.649Z,97.40
2018-10-11T02:07:19.065Z,97.30
2018-10-11T02:09:49.501Z,97.00
2018-10-11T02:12:19.887Z,97.10
2018-10-11T02:14:50.259Z,97.00
2018-10-11T02:17:20.674Z,96.90
2018-10-11T02:19:51.030Z,96.60
2018-10-11T02:22:21.433Z,97.10
2018-10-11T02:24:51.793Z,97.00
2018-10-11T02:27:22.221Z,96.90
2018-10-11T02:29:52.599Z,96.80
2018-10-11T02:32:22.953Z,96.60
2018-10-11T02:34:53.473Z,96.40
2018-10-11T02:37:23.964Z,96.60
2018-10-11T02:39:54.358Z,96.60
2018-10-11T02:42:25.281Z,96.60
2018-10-11T02:44:55.667Z,96.50
2018-10-11T02:47:26.110Z,96.40
2018-10-11T02:49:56.487Z,96.40
2018-10-11T02:52:26.866Z,96.60
2018-10-11T02:54:57.291Z,96.70
2018-10-11T02:57:44.563Z,96.80
2018-10-11T03:00:15.069Z,96.90
2018-10-11T03:02:46.692Z,97.00
2018-10-11T03:05:19.099Z,97.10
2018-10-11T03:07:49.532Z,97.30
2018-10-11T03:10:20.043Z,97.30
2018-10-11T03:12:50.432Z,97.20
2018-10-11T03:15:20.929Z,97.30
2018-10-11T03:17:51.322Z,97.50
2018-10-11T03:20:21.750Z,97.50
2018-10-11T03:22:52.127Z,97.50
2018-10-11T03:25:22.597Z,97.50
2018-10-11T03:27:52.978Z,97.30
2018-10-11T03:30:23.447Z,97.10
2018-10-11T03:32:53.824Z,97.00
2018-10-11T03:35:24.232Z,97.10
2018-10-11T03:37:54.934Z,97.00
2018-10-11T03:40:25.353Z,96.80
2018-10-11T03:42:56.071Z,97.20
2018-10-11T03:45:26.556Z,97.00
2018-10-11T03:47:57.041Z,97.20
2018-10-11T03:50:27.901Z,97.10
2018-10-11T03:52:59.108Z,97.20
2018-10-11T03:55:29.523Z,97.00
2018-10-11T03:57:59.869Z,97.20
2018-10-11T04:00:30.294Z,97.40
2018-10-11T04:03:00.691Z,97.50
2018-10-11T04:05:31.081Z,97.60
2018-10-11T04:08:01.339Z,97.50
2018-10-11T04:10:31.657Z,97.40
2018-10-11T04:13:01.982Z,97.30
2018-10-11T04:15:32.341Z,97.60
2018-10-11T04:18:02.653Z,97.60
2018-10-11T04:20:32.957Z,97.70
2018-10-11T04:23:03.290Z,97.50
2018-10-11T04:25:33.605Z,97.40
2018-10-11T04:28:03.897Z,97.40
2018-10-11T04:30:34.213Z,97.40
2018-10-11T04:33:04.584Z,97.60
2018-10-11T04:35:34.851Z,97.60
2018-10-11T04:38:05.140Z,97.40
2018-10-11T04:40:35.421Z,97.50
2018-10-11T04:43:05.920Z,97.70
2018-10-11T04:45:36.064Z,97.80
2018-10-11T04:48:06.411Z,97.50
2018-10-11T04:50:36.728Z,97.60
2018-10-11T04:53:07.067Z,97.70
2018-10-11T04:55:37.402Z,97.60
2018-10-11T04:58:07.969Z,97.90
2018-10-11T05:00:38.257Z,97.50
2018-10-11T05:03:10.153Z,97.60
2018-10-11T05:05:40.883Z,97.80
2018-10-11T05:08:11.739Z,97.70
2018-10-11T05:10:42.327Z,97.50
2018-10-11T05:13:12.698Z,97.30
2018-10-11T05:15:44.865Z,97.40
2018-10-11T05:18:19.054Z,97.60
2018-10-11T05:20:49.366Z,97.80
2018-10-11T05:23:19.672Z,97.90
2018-10-11T05:25:50.038Z,97.90
2018-10-11T05:28:20.453Z,98.10
2018-10-11T05:30:50.753Z,98.20
2018-10-11T05:33:21.065Z,98.20
2018-10-11T05:35:51.400Z,98.10
2018-10-11T05:38:21.784Z,98.00
2018-10-11T05:40:52.147Z,97.90
2018-10-11T05:43:22.518Z,98.00
2018-10-11T05:45:58.460Z,98.10
2018-10-11T05:48:30.984Z,98.10
2018-10-11T05:51:01.987Z,98.00
2018-10-11T05:53:32.394Z,98.10
2018-10-11T05:56:02.782Z,98.20
2018-10-11T05:58:33.163Z,98.20
2018-10-11T06:01:03.518Z,98.20
2018-10-11T06:03:33.967Z,98.30
2018-10-11T06:06:04.312Z,98.20
2018-10-11T06:08:34.697Z,98.20
2018-10-11T06:11:05.611Z,98.20
2018-10-11T06:13:36.958Z,98.30
2018-10-11T06:16:07.308Z,98.30
2018-10-11T06:18:37.740Z,98.30
2018-10-11T06:21:08.198Z,98.40
2018-10-11T06:23:38.603Z,98.40
2018-10-11T06:26:08.938Z,98.40
2018-10-11T06:28:39.323Z,98.40
2018-10-11T06:31:09.658Z,98.50
2018-10-11T06:33:41.495Z,98.40
2018-10-11T06:36:12.040Z,98.40
2018-10-11T06:38:42.540Z,98.70
2018-10-11T06:41:13.036Z,98.30
2018-10-11T06:43:43.448Z,98.30
2018-10-11T06:46:14.465Z,98.30
2018-10-11T06:48:44.834Z,98.30
2018-10-11T06:51:15.251Z,97.80
2018-10-11T06:53:45.934Z,97.60
2018-10-11T06:56:16.269Z,97.60
2018-10-11T06:58:46.575Z,97.50
2018-10-11T07:01:16.937Z,97.40
2018-10-11T07:03:47.309Z,97.90
2018-10-11T07:06:17.691Z,97.60
2018-10-11T07:08:48.032Z,97.00
2018-10-11T07:11:18.357Z,96.70
2018-10-11T07:13:48.728Z,96.60
2018-10-11T07:16:19.102Z,96.70
2018-10-11T07:18:49.469Z,96.70
2018-10-11T07:21:20.042Z,96.50
2018-10-11T07:23:50.400Z,96.70
2018-10-11T07:26:20.727Z,96.50
2018-10-11T07:28:51.211Z,96.40
2018-10-11T07:31:21.518Z,96.10
2018-10-11T07:33:51.882Z,96.10
2018-10-11T07:36:22.255Z,96.40
2018-10-11T07:38:52.626Z,96.30
2018-10-11T07:41:22.978Z,96.00
2018-10-11T07:43:53.339Z,95.80
2018-10-11T07:46:23.669Z,95.40
2018-10-11T07:48:54.033Z,95.20
2018-10-11T07:51:24.314Z,95.20
2018-10-11T07:53:58.673Z,95.10
2018-10-11T07:56:29.407Z,95.20
2018-10-11T07:59:00.237Z,94.60
2018-10-11T08:01:31.327Z,94.30
2018-10-11T08:04:01.654Z,94.10
2018-10-11T08:06:31.949Z,93.30
2018-10-11T08:09:02.448Z,93.10
2018-10-11T08:11:32.797Z,92.80
2018-10-11T08:14:03.073Z,92.40
2018-10-11T08:16:33.496Z,92.00
2018-10-11T08:19:03.960Z,91.70
2018-10-11T08:21:34.098Z,91.40
2018-10-11T08:24:04.443Z,90.80
2018-10-11T08:26:34.779Z,90.60
2018-10-11T08:29:05.403Z,90.70
2018-10-11T08:31:35.792Z,89.80
2018-10-11T08:34:06.079Z,90.10
2018-10-11T08:36:36.406Z,90.00
2018-10-11T08:39:10.449Z,90.30
2018-10-11T08:41:41.110Z,90.50
2018-10-11T08:44:12.858Z,90.30
2018-10-11T08:46:43.257Z,90.20
2018-10-11T08:49:13.684Z,89.70
2018-10-11T08:51:43.983Z,89.10
2018-10-11T08:54:19.594Z,88.40
2018-10-11T08:56:49.912Z,88.60
2018-10-11T08:59:20.274Z,90.00
2018-10-11T09:01:50.560Z,89.70
2018-10-11T09:04:20.847Z,90.10
2018-10-11T09:06:51.140Z,89.30
2018-10-11T09:09:21.414Z,88.10
2018-10-11T09:11:51.696Z,88.20
2018-10-11T09:14:21.983Z,87.90
2018-10-11T09:16:52.241Z,87.90
2018-10-11T09:19:22.547Z,85.30
2018-10-11T09:21:52.822Z,85.00
2018-10-11T09:24:23.115Z,84.40
2018-10-11T09:26:53.456Z,83.10
2018-10-11T09:29:23.793Z,80.90
2018-10-11T09:31:54.092Z,80.30
2018-10-11T09:34:24.445Z,79.50
2018-10-11T09:36:54.753Z,79.10
2018-10-11T09:39:25.042Z,78.20
2018-10-11T09:41:55.331Z,76.60
2018-10-11T09:44:25.610Z,77.40
2018-10-11T09:46:55.917Z,74.50
2018-10-11T09:49:26.219Z,74.50
2018-10-11T09:51:56.574Z,74.40
2018-10-11T09:54:26.904Z,73.90
2018-10-11T09:57:29.656Z,72.10
2018-10-11T10:00:00.869Z,70.30
2018-10-11T10:02:31.734Z,70.40
2018-10-11T10:05:03.442Z,69.70
2018-10-11T10:07:33.782Z,70.10
2018-10-11T10:10:04.192Z,70.20
2018-10-11T10:12:34.562Z,71.60
2018-10-11T10:15:05.187Z,72.30
2018-10-11T10:17:36.045Z,73.40
2018-10-11T10:20:06.957Z,72.40
2018-10-11T10:22:37.262Z,72.20
2018-10-11T10:25:07.594Z,71.10
2018-10-11T10:27:37.905Z,71.60
2018-10-11T10:30:13.657Z,72.20
2018-10-11T10:32:44.018Z,72.20
2018-10-11T10:35:14.306Z,71.50
2018-10-11T10:37:44.577Z,70.30
2018-10-11T10:40:14.863Z,68.20
2018-10-11T10:42:45.161Z,69.90
2018-10-11T10:45:15.504Z,67.00
2018-10-11T10:47:45.801Z,65.80
2018-10-11T10:50:16.106Z,65.50
2018-10-11T10:52:46.396Z,65.10
2018-10-11T10:55:16.730Z,64.00
2018-10-11T10:57:47.013Z,64.50
2018-10-11T11:00:17.337Z,60.90
2018-10-11T11:02:47.645Z,60.40
2018-10-11T11:05:17.934Z,60.90
2018-10-11T11:07:48.277Z,59.00
2018-10-11T11:10:18.625Z,59.10
2018-10-11T11:12:48.914Z,58.50
2018-10-11T11:15:19.218Z,57.90
2018-10-11T11:17:49.519Z,58.20
2018-10-11T11:20:19.834Z,58.10
2018-10-11T11:22:50.203Z,57.70
2018-10-11T11:25:20.573Z,56.50
2018-10-11T11:27:50.827Z,54.40
2018-10-11T11:30:21.158Z,53.50
2018-10-11T11:32:51.460Z,53.60
2018-10-11T11:35:21.796Z,53.00
2018-10-11T11:37:52.126Z,52.50
2018-10-11T11:40:22.417Z,53.00
2018-10-11T11:42:52.749Z,52.60
2018-10-11T11:45:23.025Z,52.90
2018-10-11T11:47:53.311Z,53.90
2018-10-11T11:50:23.631Z,53.70
2018-10-11T11:52:53.935Z,53.50
2018-10-11T11:55:24.231Z,54.80
2018-10-11T11:57:54.582Z,55.00
2018-10-11T12:00:27.456Z,56.00
2018-10-11T12:02:59.563Z,55.70
2018-10-11T12:05:30.707Z,55.00
2018-10-11T12:08:01.075Z,54.40
2018-10-11T12:10:31.448Z,54.40
2018-10-11T12:13:06.082Z,54.50
2018-10-11T12:15:37.014Z,55.40
2018-10-11T12:18:08.064Z,55.90
2018-10-11T12:20:40.584Z,55.10
2018-10-11T12:23:12.225Z,54.70
2018-10-11T12:25:42.572Z,54.10
2018-10-11T12:28:12.889Z,54.40
2018-10-11T12:30:43.203Z,54.70
2018-10-11T12:33:13.547Z,55.00
2018-10-11T12:35:43.851Z,54.80
2018-10-11T12:38:14.155Z,54.60
2018-10-11T12:40:44.522Z,54.70
2018-10-11T12:43:14.843Z,54.80
2018-10-11T12:45:45.181Z,55.20
2018-10-11T12:48:15.515Z,55.10
2018-10-11T12:50:45.945Z,55.60
2018-10-11T12:53:16.234Z,54.00
2018-10-11T12:55:46.726Z,53.90
2018-10-11T12:58:17.010Z,54.00
2018-10-11T13:00:47.384Z,54.50
2018-10-11T13:03:17.785Z,54.30
2018-10-11T13:05:48.075Z,53.50
2018-10-11T13:08:18.436Z,54.50
2018-10-11T13:10:48.794Z,54.60
2018-10-11T13:13:19.159Z,54.50
2018-10-11T13:15:49.581Z,54.20
2018-10-11T13:18:19.898Z,55.70
2018-10-11T13:20:50.198Z,56.10
2018-10-11T13:23:20.582Z,55.40
2018-10-11T13:25:50.911Z,55.70
2018-10-11T13:28:21.180Z,56.30
2018-10-11T13:30:51.509Z,58.40
2018-10-11T13:33:21.803Z,56.50
2018-10-11T13:35:52.126Z,57.10
2018-10-11T13:38:22.437Z,57.00
2018-10-11T13:40:55.815Z,58.30
2018-10-11T13:43:23.125Z,57.50
2018-10-11T13:45:56.975Z,57.20
2018-10-11T13:48:23.793Z,57.10
2018-10-11T13:50:54.166Z,56.60
2018-10-11T13:53:24.798Z,56.20
2018-10-11T13:55:58.310Z,56.60
2018-10-11T13:58:26.038Z,56.80
2018-10-11T14:00:56.413Z,56.00
2018-10-11T14:03:26.790Z,55.90
2018-10-11T14:05:57.150Z,56.30
2018-10-11T14:08:27.489Z,55.70
2018-10-11T14:10:57.873Z,55.50
2018-10-11T14:13:28.317Z,56.00
2018-10-11T14:15:58.635Z,55.90
2018-10-11T14:18:28.935Z,54.20
2018-10-11T14:20:59.477Z,53.70
2018-10-11T14:23:29.803Z,53.40
2018-10-11T14:26:00.093Z,53.90
2018-10-11T14:28:30.523Z,54.40
2018-10-11T14:31:00.843Z,55.00
2018-10-11T14:33:31.157Z,56.30
2018-10-11T14:36:01.493Z,57.40
2018-10-11T14:38:31.838Z,57.80
2018-10-11T14:41:02.188Z,58.00
2018-10-11T14:43:32.629Z,57.30
2018-10-11T14:46:02.877Z,56.70
2018-10-11T14:48:33.241Z,56.90
2018-10-11T14:51:03.623Z,58.70
2018-10-11T14:53:33.884Z,59.20
2018-10-11T14:56:04.218Z,58.70
2018-10-11T14:58:34.586Z,59.70
2018-10-11T15:01:04.948Z,59.90
2018-10-11T15:03:35.242Z,60.50
2018-10-11T15:06:05.742Z,60.80
2018-10-11T15:08:36.125Z,61.50
2018-10-11T15:11:06.779Z,62.20
2018-10-11T15:13:37.057Z,62.10
2018-10-11T15:16:07.418Z,62.60
2018-10-11T15:21:07.779Z,63.10
2018-10-11T15:23:38.078Z,64.70
2018-10-11T15:26:08.453Z,65.40
2018-10-11T15:28:38.774Z,66.60
2018-10-11T15:31:09.134Z,67.10
2018-10-11T15:33:39.422Z,67.80
2018-10-11T15:36:09.767Z,68.50
2018-10-11T15:38:40.125Z,69.40
2018-10-11T15:41:10.426Z,70.00
2018-10-11T15:43:40.940Z,70.60
2018-10-11T15:46:11.162Z,71.20
2018-10-11T15:48:41.533Z,71.90
2018-10-11T15:51:11.878Z,72.50
2018-10-11T15:53:42.246Z,73.10
2018-10-11T15:56:12.590Z,74.00
2018-10-11T15:58:42.949Z,75.00
2018-10-11T16:01:13.362Z,75.40
2018-10-11T16:03:43.677Z,75.90
2018-10-11T16:06:14.045Z,76.50
2018-10-11T16:08:44.323Z,77.20
2018-10-11T16:11:14.701Z,78.00
2018-10-11T16:13:45.062Z,78.50
2018-10-11T16:16:15.449Z,78.80
2018-10-11T16:18:45.782Z,79.60
2018-10-11T16:21:16.133Z,80.00
2018-10-11T16:23:46.457Z,80.40
2018-10-11T16:26:16.842Z,81.30
2018-10-11T16:28:47.235Z,81.90
2018-10-11T16:31:17.619Z,82.40
2018-10-11T16:33:48.206Z,82.80
2018-10-11T16:36:18.570Z,83.50
2018-10-11T16:38:48.939Z,83.70
2018-10-11T16:41:19.258Z,83.80
2018-10-11T16:43:49.631Z,84.00
2018-10-11T16:46:19.966Z,84.30
2018-10-11T16:48:50.356Z,84.40
2018-10-11T16:51:20.711Z,84.80
2018-10-11T16:53:51.462Z,85.30
2018-10-11T16:56:21.806Z,85.60
2018-10-11T16:58:52.147Z,86.30
2018-10-11T17:01:22.571Z,86.20
2018-10-11T17:03:52.903Z,86.30
2018-10-11T17:06:23.288Z,86.70
2018-10-11T17:08:53.613Z,87.60
2018-10-11T17:11:23.992Z,87.70
2018-10-11T17:13:54.389Z,87.60
2018-10-11T17:16:24.740Z,87.30
2018-10-11T17:18:55.076Z,88.30
2018-10-11T17:21:25.449Z,88.80
2018-10-11T17:23:55.741Z,89.40
2018-10-11T17:26:26.172Z,89.60
2018-10-11T17:28:56.528Z,90.00
2018-10-11T17:31:26.864Z,90.20
2018-10-11T17:33:57.149Z,90.30
2018-10-11T17:36:27.517Z,90.20
2018-10-11T17:38:57.827Z,90.60
2018-10-11T17:41:28.185Z,90.40
2018-10-11T17:43:58.650Z,90.50
2018-10-11T17:46:28.879Z,90.50
2018-10-11T17:48:59.241Z,90.60
2018-10-11T17:51:29.607Z,90.50
2018-10-11T17:53:59.996Z,90.50
2018-10-11T17:56:30.374Z,90.60
2018-10-11T17:59:00.682Z,90.80
2018-10-11T18:01:31.039Z,90.80
2018-10-11T18:04:01.378Z,90.90
2018-10-11T18:06:31.803Z,91.00
2018-10-11T18:09:02.143Z,91.10
2018-10-11T18:11:32.515Z,91.10
2018-10-11T18:14:03.024Z,91.00
2018-10-11T18:16:33.436Z,91.10
2018-10-11T18:19:03.829Z,91.20
2018-10-11T18:21:34.223Z,91.20
2018-10-11T18:24:04.663Z,91.20
2018-10-11T18:26:35.043Z,91.30
2018-10-11T18:29:05.786Z,91.40
2018-10-11T18:31:36.440Z,91.40
2018-10-11T18:34:07.172Z,92.00
2018-10-11T18:36:37.523Z,91.90
2018-10-11T18:39:12.512Z,91.90
2018-10-11T18:41:43.476Z,92.00
2018-10-11T18:44:14.031Z,92.00
2018-10-11T18:46:44.439Z,92.00
2018-10-11T18:49:14.784Z,92.10
2018-10-11T18:51:45.195Z,92.20
2018-10-11T18:54:15.581Z,92.40
2018-10-11T18:56:46.082Z,92.50
2018-10-11T18:59:16.526Z,92.60
2018-10-11T19:01:47.046Z,92.60
2018-10-11T19:04:17.477Z,92.60
2018-10-11T19:06:48.163Z,92.60
2018-10-11T19:09:18.714Z,92.70
2018-10-11T19:11:49.188Z,92.70
2018-10-11T19:14:19.648Z,92.70
2018-10-11T19:16:50.076Z,92.90
2018-10-11T19:19:20.474Z,93.00
2018-10-11T19:21:50.939Z,93.10
2018-10-11T19:24:21.377Z,93.10
2018-10-11T19:26:51.763Z,93.30
2018-10-11T19:29:22.230Z,93.40
2018-10-11T19:31:52.708Z,93.40
2018-10-11T19:34:23.092Z,93.50
2018-10-11T19:36:53.517Z,93.70
2018-10-11T19:39:23.932Z,93.60
2018-10-11T19:41:54.286Z,93.70
2018-10-11T19:44:24.684Z,93.90
2018-10-11T19:46:55.144Z,93.90
2018-10-11T19:49:25.549Z,93.90
2018-10-11T19:51:55.947Z,93.80
2018-10-11T19:54:26.359Z,93.90
2018-10-11T19:56:56.709Z,94.10
2018-10-11T19:59:27.038Z,94.20
2018-10-11T20:01:57.411Z,94.00
2018-10-11T20:04:27.721Z,94.20
2018-10-11T20:06:58.085Z,94.40
2018-10-11T20:09:28.460Z,94.50
2018-10-11T20:11:58.826Z,94.40
2018-10-11T20:14:29.137Z,94.50
2018-10-11T20:16:59.503Z,94.60
2018-10-11T20:19:29.831Z,94.80
2018-10-11T20:22:00.259Z,94.70
2018-10-11T20:24:30.585Z,94.70
2018-10-11T20:27:00.956Z,94.80
2018-10-11T20:29:31.309Z,94.90
2018-10-11T20:32:01.656Z,94.80
2018-10-11T20:34:32.191Z,95.00
2018-10-11T20:37:02.612Z,94.90
2018-10-11T20:39:33.013Z,95.00
2018-10-11T20:42:03.366Z,95.00
2018-10-11T20:44:33.751Z,95.00
2018-10-11T20:47:04.050Z,95.00
2018-10-11T20:49:34.414Z,95.10
2018-10-11T20:52:04.739Z,95.20
2018-10-11T20:54:35.126Z,95.20
2018-10-11T20:57:05.513Z,95.10
2018-10-11T20:59:35.826Z,95.10
2018-10-11T21:02:06.478Z,95.10
2018-10-11T21:04:36.911Z,95.00
2018-10-11T21:07:07.693Z,95.20
2018-10-11T21:09:37.988Z,95.40
2018-10-11T21:12:08.438Z,95.50
2018-10-11T21:14:38.725Z,95.70
2018-10-11T21:17:09.066Z,95.80
2018-10-11T21:19:39.358Z,95.50
2018-10-11T21:22:09.673Z,95.70
2018-10-11T21:24:40.201Z,95.60
2018-10-11T21:27:10.557Z,95.80
2018-10-11T21:29:40.918Z,95.80
2018-10-11T21:32:11.273Z,95.80
2018-10-11T21:34:41.613Z,95.70
2018-10-11T21:37:11.930Z,95.60
2018-10-11T21:39:42.231Z,95.60
2018-10-11T21:42:12.582Z,95.70
2018-10-11T21:44:42.934Z,95.70
2018-10-11T21:47:13.251Z,96.00
2018-10-11T21:49:43.597Z,96.00
2018-10-11T21:52:13.976Z,95.80
2018-10-11T21:54:44.311Z,95.70
2018-10-11T21:57:14.610Z,95.70
2018-10-11T21:59:44.945Z,95.70
2018-10-11T22:02:15.239Z,95.80
2018-10-11T22:04:45.856Z,95.80
2018-10-11T22:07:16.190Z,95.70
2018-10-11T22:09:46.539Z,95.70
2018-10-11T22:12:16.858Z,95.80
2018-10-11T22:14:47.262Z,96.00
2018-10-11T22:17:17.521Z,96.20
2018-10-11T22:19:47.812Z,96.20
2018-10-11T22:22:18.154Z,96.40
2018-10-11T22:24:48.450Z,96.60
2018-10-11T22:27:18.816Z,96.80
2018-10-11T22:29:49.141Z,97.00
2018-10-11T22:32:19.459Z,97.00
2018-10-11T22:34:49.769Z,97.00
2018-10-11T22:37:20.073Z,96.70
2018-10-11T22:39:50.367Z,96.50
2018-10-11T22:42:20.756Z,96.40
2018-10-11T22:44:51.080Z,96.50
2018-10-11T22:47:21.416Z,96.30
2018-10-11T22:49:51.762Z,96.40
2018-10-11T22:52:22.121Z,96.30
2018-10-11T22:54:52.466Z,96.40
2018-10-11T22:57:22.799Z,96.30
2018-10-11T22:59:53.166Z,96.10
2018-10-11T23:02:23.483Z,96.30
2018-10-11T23:04:53.813Z,96.30
2018-10-11T23:07:24.137Z,96.50
2018-10-11T23:09:54.850Z,96.10
2018-10-11T23:12:25.454Z,96.20
2018-10-11T23:14:55.809Z,96.30
2018-10-11T23:17:26.115Z,96.30
2018-10-11T23:19:56.435Z,96.20
2018-10-11T23:22:26.764Z,96.20
2018-10-11T23:24:57.082Z,96.30
2018-10-11T23:27:27.398Z,96.30
2018-10-11T23:29:57.721Z,96.10
2018-10-11T23:32:28.038Z,96.00
2018-10-11T23:34:58.382Z,96.10
2018-10-11T23:37:28.714Z,96.30
2018-10-11T23:39:59.106Z,96.30
2018-10-11T23:42:29.485Z,96.20
2018-10-11T23:44:59.788Z,96.00
2018-10-11T23:47:30.282Z,95.90
2018-10-11T23:50:00.625Z,96.00
2018-10-11T23:52:30.977Z,96.10
2018-10-11T23:55:01.301Z,96.20
2018-10-11T23:57:31.635Z,96.20
